Time;durP1;ratioP1;P1;durP2;ratioP2;P2;SDS_P1;SDS_P2;PMS_P1;PMS_P2;Temp;Humidity;BMP_temperature;BMP_pressure;BME280_temperature;BME280_humidity;BME280_pressure;Samples;Min_cycle;Max_cycle;Signal;HPM_P1;HPM_P2
2023/09/08 00:02:16;;;;;;;5.10;3.60;;;23.70;73.30;;;;;;5074088;28;20415;-58
2023/09/08 00:04:42;;;;;;;4.93;3.45;;;23.70;73.30;;;;;;5073035;28;20036;-58
2023/09/08 00:07:07;;;;;;;5.57;3.72;;;23.70;73.40;;;;;;5074246;28;20190;-58
2023/09/08 00:09:33;;;;;;;5.32;3.67;;;23.70;73.30;;;;;;5087064;28;20032;-58
2023/09/08 00:11:58;;;;;;;4.15;3.70;;;23.70;73.30;;;;;;5093630;28;20050;-58
2023/09/08 00:14:24;;;;;;;5.93;3.58;;;23.70;73.30;;;;;;5093978;28;20044;-58
2023/09/08 00:16:54;;;;;;;5.13;3.15;;;23.70;73.30;;;;;;5094411;28;20126;-58
2023/09/08 00:19:20;;;;;;;6.32;3.80;;;23.70;73.30;;;;;;5093291;28;20106;-58
2023/09/08 00:21:45;;;;;;;4.45;3.47;;;23.70;73.30;;;;;;5093807;28;20433;-59
2023/09/08 00:24:12;;;;;;;5.00;3.78;;;23.70;73.30;;;;;;5094268;28;20036;-58
2023/09/08 00:26:37;;;;;;;4.65;3.50;;;23.70;73.30;;;;;;5092762;28;20051;-58
2023/09/08 00:29:03;;;;;;;5.55;3.35;;;23.70;73.30;;;;;;5093355;28;20043;-58
2023/09/08 00:31:29;;;;;;;4.53;3.35;;;23.70;73.30;;;;;;5092940;28;20525;-59
2023/09/08 00:33:54;;;;;;;4.82;3.38;;;23.70;73.30;;;;;;5091394;28;20495;-58
2023/09/08 00:36:20;;;;;;;4.47;3.33;;;23.70;73.30;;;;;;5093758;28;20040;-59
2023/09/08 00:38:45;;;;;;;5.50;3.78;;;23.70;73.30;;;;;;5092138;28;20048;-59
2023/09/08 00:41:11;;;;;;;4.82;3.20;;;23.70;73.30;;;;;;5093311;28;20040;-58
2023/09/08 00:43:37;;;;;;;4.90;3.60;;;23.70;73.30;;;;;;5093171;28;20042;-59
2023/09/08 00:46:02;;;;;;;4.60;3.15;;;23.70;73.30;;;;;;5092756;28;20539;-59
2023/09/08 00:48:28;;;;;;;5.45;3.55;;;23.70;73.30;;;;;;5097494;28;20039;-58
2023/09/08 00:50:54;;;;;;;5.03;3.55;;;23.70;73.30;;;;;;5112660;28;20047;-58
2023/09/08 00:53:19;;;;;;;5.18;3.60;;;23.70;73.30;;;;;;5106411;28;20084;-59
2023/09/08 00:55:45;;;;;;;4.82;3.60;;;23.70;73.30;;;;;;5091641;28;20040;-59
2023/09/08 00:58:14;;;;;;;6.30;3.72;;;23.60;73.20;;;;;;5075221;28;20040;-59
2023/09/08 01:00:39;;;;;;;6.03;4.13;;;23.60;73.20;;;;;;5091815;28;20040;-58
2023/09/08 01:03:05;;;;;;;5.38;3.50;;;23.60;73.20;;;;;;5092823;28;20046;-58
2023/09/08 01:05:30;;;;;;;4.68;3.33;;;23.70;73.30;;;;;;5093320;28;20036;-58
2023/09/08 01:07:56;;;;;;;6.10;3.58;;;23.70;73.30;;;;;;5091019;28;20040;-59
2023/09/08 01:10:22;;;;;;;4.10;3.30;;;23.60;73.20;;;;;;5093016;28;20113;-59
2023/09/08 01:12:48;;;;;;;5.30;3.78;;;23.60;73.20;;;;;;5104507;28;20388;-59
2023/09/08 01:15:13;;;;;;;4.80;3.83;;;23.60;73.20;;;;;;5112490;28;20494;-58
2023/09/08 01:17:39;;;;;;;4.45;3.15;;;23.60;73.20;;;;;;5113040;28;20083;-58
2023/09/08 01:20:13;;;;;;;6.93;3.80;;;23.60;73.20;;;;;;5112832;28;20032;-58
2023/09/08 01:23:02;;;;;;;6.10;3.90;;;23.60;73.20;;;;;;5112508;28;20051;-59
2023/09/08 01:25:28;;;;;;;5.93;3.78;;;23.60;73.20;;;;;;5112260;28;20055;-58
2023/09/08 01:27:58;;;;;;;3.97;2.95;;;23.60;73.20;;;;;;5111233;28;20043;-58
2023/09/08 01:30:25;;;;;;;4.38;3.25;;;23.60;73.20;;;;;;5101712;28;20395;-58
2023/09/08 01:32:51;;;;;;;4.63;3.55;;;23.60;73.20;;;;;;5091621;28;20055;-58
2023/09/08 01:35:16;;;;;;;4.07;3.25;;;23.60;73.10;;;;;;5090944;28;20036;-58
2023/09/08 01:37:46;;;;;;;4.30;3.28;;;23.60;73.20;;;;;;5091261;28;20079;-58
2023/09/08 01:40:12;;;;;;;5.70;3.88;;;23.60;73.20;;;;;;5092872;28;20040;-58
2023/09/08 01:42:38;;;;;;;5.35;3.53;;;23.60;73.10;;;;;;5090237;28;20387;-58
2023/09/08 01:45:04;;;;;;;4.57;3.20;;;23.60;73.20;;;;;;5104443;28;20077;-58
2023/09/08 01:47:29;;;;;;;6.50;3.90;;;23.60;73.10;;;;;;5112835;28;20495;-58
2023/09/08 01:49:55;;;;;;;4.10;3.20;;;23.60;73.10;;;;;;5110912;28;20046;-58
2023/09/08 01:52:21;;;;;;;4.28;3.25;;;23.50;73.10;;;;;;5119459;28;20187;-58
2023/09/08 01:54:46;;;;;;;5.47;3.63;;;23.60;73.70;;;;;;5119367;28;20506;-58
2023/09/08 01:57:12;;;;;;;5.30;3.50;;;23.50;73.10;;;;;;5118847;28;20043;-58
2023/09/08 01:59:37;;;;;;;5.38;3.65;;;23.50;73.10;;;;;;5118047;28;20036;-58
2023/09/08 02:02:03;;;;;;;4.22;3.45;;;23.50;73.10;;;;;;5102102;28;20040;-59
2023/09/08 02:04:29;;;;;;;4.90;3.50;;;23.50;73.10;;;;;;5096954;28;20040;-59
2023/09/08 02:06:54;;;;;;;4.43;3.50;;;23.50;73.10;;;;;;5098729;28;20039;-58
2023/09/08 02:09:20;;;;;;;5.07;3.50;;;23.50;73.10;;;;;;5099065;28;20040;-58
2023/09/08 02:11:46;;;;;;;4.45;3.55;;;23.50;73.10;;;;;;5113853;28;20507;-57
2023/09/08 02:14:11;;;;;;;5.18;3.55;;;23.50;73.10;;;;;;5099280;28;20059;-58
2023/09/08 02:16:37;;;;;;;4.85;3.72;;;23.50;73.10;;;;;;5099192;28;20092;-58
2023/09/08 02:19:02;;;;;;;4.95;3.58;;;23.50;73.10;;;;;;5098514;28;20073;-58
2023/09/08 02:21:28;;;;;;;4.15;3.38;;;23.50;73.10;;;;;;5099252;28;20507;-58
2023/09/08 02:23:54;;;;;;;4.13;3.38;;;23.50;73.10;;;;;;5099078;28;20048;-58
2023/09/08 02:26:19;;;;;;;5.25;3.50;;;23.50;73.10;;;;;;5096927;28;20406;-58
2023/09/08 02:28:45;;;;;;;6.40;3.50;;;23.50;73.10;;;;;;5098788;28;20048;-57
2023/09/08 02:31:11;;;;;;;4.00;3.13;;;23.50;73.10;;;;;;5099006;28;20036;-58
2023/09/08 02:33:36;;;;;;;4.88;3.58;;;23.50;73.10;;;;;;5098380;28;20051;-58
2023/09/08 02:36:05;;;;;;;4.60;3.40;;;23.50;73.10;;;;;;5099466;28;20059;-59
2023/09/08 02:38:32;;;;;;;5.75;4.07;;;23.50;73.10;;;;;;5098189;28;20567;-58
2023/09/08 02:40:57;;;;;;;4.43;3.38;;;23.50;73.10;;;;;;5097428;28;20557;-59
2023/09/08 02:43:23;;;;;;;5.68;3.90;;;23.50;73.10;;;;;;5099021;28;20057;-58
2023/09/08 02:45:49;;;;;;;4.38;3.28;;;23.50;73.10;;;;;;5116104;28;20043;-59
2023/09/08 02:48:16;;;;;;;5.22;3.70;;;23.50;73.10;;;;;;5119473;27;20077;-59
2023/09/08 02:50:41;;;;;;;4.97;3.88;;;23.40;73.00;;;;;;5118966;27;20036;-59
2023/09/08 02:53:07;;;;;;;5.50;3.70;;;23.40;73.00;;;;;;5118555;27;20104;-58
2023/09/08 02:55:33;;;;;;;4.63;3.55;;;23.40;73.00;;;;;;5119149;28;20560;-58
2023/09/08 02:57:58;;;;;;;5.50;3.60;;;23.40;73.00;;;;;;5119076;28;20062;-58
2023/09/08 03:00:24;;;;;;;4.60;3.30;;;23.40;73.60;;;;;;5118521;28;20078;-58
2023/09/08 03:02:50;;;;;;;4.75;3.60;;;23.40;73.00;;;;;;5116069;28;20035;-58
2023/09/08 03:05:15;;;;;;;4.90;3.83;;;23.40;73.00;;;;;;5116044;28;20527;-58
2023/09/08 03:07:41;;;;;;;4.78;3.90;;;23.40;73.00;;;;;;5114808;28;20081;-58
2023/09/08 03:10:07;;;;;;;5.18;3.80;;;23.40;73.00;;;;;;5115878;28;20075;-58
2023/09/08 03:12:32;;;;;;;4.85;3.80;;;23.40;73.00;;;;;;5116041;28;20475;-58
2023/09/08 03:14:58;;;;;;;4.18;3.35;;;23.40;73.00;;;;;;5114670;28;20043;-58
2023/09/08 03:17:23;;;;;;;4.40;3.83;;;23.40;73.00;;;;;;5115980;28;20040;-58
2023/09/08 03:19:49;;;;;;;5.38;3.80;;;23.40;73.00;;;;;;5115357;28;20035;-58
2023/09/08 03:22:15;;;;;;;4.97;3.90;;;23.40;73.00;;;;;;5114057;28;20050;-58
2023/09/08 03:24:40;;;;;;;5.38;3.88;;;23.40;73.00;;;;;;5115306;28;20048;-57
2023/09/08 03:27:06;;;;;;;4.90;3.63;;;23.40;73.00;;;;;;5115354;28;20039;-58
2023/09/08 03:29:31;;;;;;;4.88;3.80;;;23.40;73.00;;;;;;5113427;28;20548;-58
2023/09/08 03:31:57;;;;;;;5.72;3.83;;;23.40;73.00;;;;;;5115085;28;20035;-58
2023/09/08 03:34:22;;;;;;;4.63;3.13;;;23.40;73.00;;;;;;5115229;28;20372;-58
2023/09/08 03:36:49;;;;;;;5.15;3.80;;;23.40;73.00;;;;;;5114279;28;20169;-58
2023/09/08 03:39:15;;;;;;;5.93;3.40;;;23.30;72.90;;;;;;5113766;28;20044;-58
2023/09/08 03:41:40;;;;;;;4.25;3.42;;;23.30;72.90;;;;;;5114470;28;20036;-58
2023/09/08 03:44:06;;;;;;;5.30;3.65;;;23.30;72.90;;;;;;5114761;28;20040;-58
2023/09/08 03:46:31;;;;;;;4.30;3.45;;;23.30;72.90;;;;;;5115156;28;20054;-58
2023/09/08 03:49:00;;;;;;;6.20;3.63;;;23.30;72.90;;;;;;5114305;28;20510;-58
2023/09/08 03:51:27;;;;;;;5.10;3.63;;;23.30;72.90;;;;;;5114780;28;20062;-58
2023/09/08 03:53:53;;;;;;;4.53;3.40;;;23.30;72.90;;;;;;5114562;28;20112;-58
2023/09/08 03:56:20;;;;;;;4.93;3.88;;;23.30;72.90;;;;;;5113632;28;20475;-58
2023/09/08 03:58:46;;;;;;;5.53;3.67;;;23.30;72.90;;;;;;5114641;28;20061;-58
2023/09/08 04:01:11;;;;;;;4.53;3.40;;;23.30;72.90;;;;;;5103476;28;20040;-58
2023/09/08 04:03:37;;;;;;;5.22;3.40;;;23.30;72.90;;;;;;5093297;28;20047;-58
2023/09/08 04:06:02;;;;;;;5.53;3.95;;;23.30;73.50;;;;;;5092694;28;20067;-58
2023/09/08 04:08:28;;;;;;;4.93;3.60;;;23.30;73.10;;;;;;5094211;28;20165;-58
2023/09/08 04:10:54;;;;;;;4.50;3.42;;;23.30;72.90;;;;;;5092800;28;20449;-59
2023/09/08 04:13:19;;;;;;;5.00;3.55;;;23.30;72.90;;;;;;5093496;28;20040;-59
2023/09/08 04:15:45;;;;;;;4.70;3.45;;;23.30;72.90;;;;;;5094019;28;20050;-58
2023/09/08 04:18:10;;;;;;;4.35;3.28;;;23.30;72.90;;;;;;5093573;28;20047;-58
2023/09/08 04:20:36;;;;;;;4.30;3.47;;;23.30;72.90;;;;;;5093843;28;20442;-58
2023/09/08 04:23:01;;;;;;;4.60;3.33;;;23.30;72.90;;;;;;5093786;28;20040;-58
2023/09/08 04:25:27;;;;;;;4.78;3.78;;;23.30;72.90;;;;;;5092181;28;20039;-58
2023/09/08 04:27:53;;;;;;;4.00;3.08;;;23.30;72.90;;;;;;5093718;28;20270;-58
2023/09/08 04:30:18;;;;;;;4.38;3.60;;;23.30;72.90;;;;;;5094184;28;20040;-58
2023/09/08 04:32:44;;;;;;;4.50;3.70;;;23.30;72.90;;;;;;5092750;28;20127;-58
2023/09/08 04:35:09;;;;;;;4.78;3.58;;;23.30;72.90;;;;;;5093879;28;20044;-58
2023/09/08 04:37:36;;;;;;;4.68;3.42;;;23.30;72.90;;;;;;5093321;28;20074;-58
2023/09/08 04:40:02;;;;;;;5.05;3.58;;;23.30;72.90;;;;;;5093959;28;20037;-58
2023/09/08 04:42:29;;;;;;;4.97;3.60;;;23.30;72.90;;;;;;5098374;28;20051;-58
2023/09/08 04:44:54;;;;;;;4.32;3.40;;;23.30;72.90;;;;;;5092601;28;20040;-58
2023/09/08 04:47:20;;;;;;;4.15;3.28;;;23.30;72.90;;;;;;5107219;28;20085;-58
2023/09/08 04:49:46;;;;;;;4.45;3.53;;;23.20;72.70;;;;;;5096834;28;20032;-58
2023/09/08 04:52:11;;;;;;;5.97;3.67;;;23.30;72.80;;;;;;5092761;28;20040;-58
2023/09/08 04:54:37;;;;;;;4.35;3.10;;;23.30;72.90;;;;;;5093189;28;20093;-58
2023/09/08 04:57:03;;;;;;;4.85;3.42;;;23.30;72.90;;;;;;5093354;28;20043;-58
2023/09/08 04:59:29;;;;;;;4.47;3.42;;;23.20;72.80;;;;;;5092301;28;20044;-57
2023/09/08 05:01:54;;;;;;;6.10;3.90;;;23.20;72.80;;;;;;5092502;28;20495;-58
2023/09/08 05:04:20;;;;;;;6.13;3.92;;;23.20;72.80;;;;;;5093333;28;20123;-58
2023/09/08 05:06:46;;;;;;;5.32;3.75;;;23.20;72.80;;;;;;5092275;28;20079;-58
2023/09/08 05:09:15;;;;;;;7.00;4.18;;;23.30;72.90;;;;;;5093195;28;20075;-57
2023/09/08 05:11:40;;;;;;;4.78;3.50;;;23.30;72.80;;;;;;5092905;28;20048;-59
2023/09/08 05:14:06;;;;;;;6.88;3.65;;;23.30;72.90;;;;;;5092187;28;20372;-57
2023/09/08 05:16:45;;;;;;;8.77;4.47;;;23.20;72.80;;;;;;5092316;28;20044;-57
2023/09/08 05:19:10;;;;;;;4.57;3.67;;;23.30;72.80;;;;;;5092959;28;20044;-57
2023/09/08 05:21:36;;;;;;;6.80;3.55;;;23.30;72.80;;;;;;5091866;28;20036;-58
2023/09/08 05:24:02;;;;;;;6.65;4.15;;;23.30;72.70;;;;;;5093168;28;20086;-58
2023/09/08 05:26:28;;;;;;;8.02;4.05;;;23.30;72.70;;;;;;5092108;28;20052;-57
2023/09/08 05:28:54;;;;;;;8.63;4.22;;;23.30;72.70;;;;;;5091745;28;20047;-58
2023/09/08 05:31:19;;;;;;;8.40;4.18;;;23.30;72.70;;;;;;5092219;28;20040;-59
2023/09/08 05:33:45;;;;;;;9.63;4.65;;;23.20;72.50;;;;;;5091189;28;20135;-58
2023/09/08 05:36:10;;;;;;;7.00;4.05;;;23.20;72.30;;;;;;5090479;28;20051;-59
2023/09/08 05:38:36;;;;;;;10.07;4.82;;;23.20;72.30;;;;;;5092682;28;20127;-58
2023/09/08 05:41:02;;;;;;;11.25;4.35;;;23.20;72.30;;;;;;5092848;28;20040;-58
2023/09/08 05:43:28;;;;;;;7.93;4.70;;;23.20;72.20;;;;;;5092172;28;20040;-58
2023/09/08 05:45:53;;;;;;;7.00;4.43;;;23.20;72.30;;;;;;5091216;28;20040;-58
2023/09/08 05:48:19;;;;;;;9.57;4.20;;;23.20;72.20;;;;;;5091684;28;20036;-58
2023/09/08 05:50:45;;;;;;;8.05;4.40;;;23.20;72.30;;;;;;5112111;28;20039;-58
2023/09/08 05:53:10;;;;;;;6.45;4.22;;;23.20;72.30;;;;;;5112087;28;20039;-58
2023/09/08 05:55:36;;;;;;;6.05;4.07;;;23.20;72.30;;;;;;5111830;28;20473;-58
2023/09/08 05:58:02;;;;;;;6.93;4.10;;;23.20;72.40;;;;;;5113117;28;20039;-58
2023/09/08 06:00:27;;;;;;;9.38;4.07;;;23.20;72.40;;;;;;5113183;28;20043;-58
2023/09/08 06:02:53;;;;;;;7.35;4.55;;;23.20;72.40;;;;;;5112065;28;20046;-58
2023/09/08 06:05:19;;;;;;;9.57;4.25;;;23.10;72.40;;;;;;5113020;28;20126;-58
2023/09/08 06:07:44;;;;;;;5.82;4.10;;;23.10;72.40;;;;;;5112726;28;20117;-58
2023/09/08 06:10:10;;;;;;;6.35;4.18;;;23.10;72.40;;;;;;5112334;28;20046;-58
2023/09/08 06:12:38;;;;;;;8.77;4.28;;;23.10;72.40;;;;;;5112626;28;20086;-58
2023/09/08 06:15:05;;;;;;;6.15;4.13;;;23.10;72.40;;;;;;5111557;28;20130;-58
2023/09/08 06:17:30;;;;;;;6.65;4.05;;;23.10;72.50;;;;;;5111720;28;20087;-58
2023/09/08 06:19:56;;;;;;;8.93;3.70;;;23.10;72.40;;;;;;5112682;28;20074;-58
2023/09/08 06:22:22;;;;;;;6.40;4.20;;;23.10;72.50;;;;;;5112752;28;20050;-58
2023/09/08 06:24:47;;;;;;;5.40;3.85;;;23.10;72.50;;;;;;5111875;28;20044;-58
2023/09/08 06:27:14;;;;;;;6.78;4.00;;;23.10;72.50;;;;;;5112870;28;20364;-58
2023/09/08 06:30:00;;;;;;;7.50;4.32;;;23.10;72.50;;;;;;5110962;28;20043;-58
2023/09/08 06:32:26;;;;;;;6.38;4.18;;;23.10;72.50;;;;;;5110188;28;20403;-58
2023/09/08 06:34:51;;;;;;;6.40;4.57;;;23.10;72.50;;;;;;5112639;28;20046;-59
2023/09/08 06:37:17;;;;;;;5.25;4.20;;;23.10;72.50;;;;;;5112769;28;20079;-58
2023/09/08 06:39:42;;;;;;;5.65;4.07;;;23.10;72.50;;;;;;5115644;28;20170;-58
2023/09/08 06:42:08;;;;;;;12.25;4.57;;;23.10;72.50;;;;;;5116680;28;20036;-58
2023/09/08 06:44:33;;;;;;;7.43;4.07;;;23.10;72.60;;;;;;5115080;28;20534;-58
2023/09/08 06:46:59;;;;;;;5.18;3.80;;;23.10;72.60;;;;;;5116234;28;20069;-58
2023/09/08 06:49:25;;;;;;;5.63;3.83;;;23.10;72.60;;;;;;5116528;28;20067;-58
2023/09/08 06:51:50;;;;;;;6.38;3.70;;;23.10;72.60;;;;;;5115433;28;20050;-58
2023/09/08 06:54:16;;;;;;;7.85;4.07;;;23.10;72.60;;;;;;5116541;28;20421;-58
2023/09/08 06:56:41;;;;;;;5.40;4.07;;;23.10;72.60;;;;;;5115958;28;20039;-58
2023/09/08 06:59:07;;;;;;;6.63;4.10;;;23.10;72.60;;;;;;5115200;28;20123;-58
2023/09/08 07:01:32;;;;;;;5.05;3.90;;;23.10;72.60;;;;;;5116307;28;20065;-58
2023/09/08 07:03:58;;;;;;;8.10;4.25;;;23.10;72.60;;;;;;5114482;28;20417;-58
2023/09/08 07:06:24;;;;;;;6.60;4.20;;;23.10;72.60;;;;;;5115351;28;20090;-58
2023/09/08 07:08:50;;;;;;;5.63;4.05;;;23.10;72.60;;;;;;5115842;28;20047;-58
2023/09/08 07:11:16;;;;;;;6.90;3.90;;;23.10;72.60;;;;;;5116033;28;20039;-58
2023/09/08 07:13:41;;;;;;;4.85;3.72;;;23.10;72.50;;;;;;5114579;28;20052;-57
2023/09/08 07:16:07;;;;;;;8.45;4.25;;;23.20;72.60;;;;;;5114722;28;20130;-58
2023/09/08 07:18:35;;;;;;;6.57;4.18;;;23.20;72.50;;;;;;5116008;28;20043;-58
2023/09/08 07:21:01;;;;;;;6.72;3.85;;;23.20;72.50;;;;;;5115228;28;20506;-58
2023/09/08 07:23:27;;;;;;;5.28;3.58;;;23.20;72.40;;;;;;5114252;28;20475;-58
2023/09/08 07:25:53;;;;;;;6.80;4.15;;;23.20;72.40;;;;;;5115447;28;20195;-58
2023/09/08 07:28:18;;;;;;;5.55;4.10;;;23.20;72.40;;;;;;5114581;27;20520;-58
2023/09/08 07:30:44;;;;;;;5.68;4.38;;;23.20;72.40;;;;;;5115129;28;20028;-58
2023/09/08 07:33:09;;;;;;;5.90;4.15;;;23.20;72.40;;;;;;5115679;28;20088;-58
2023/09/08 07:35:39;;;;;;;5.93;4.05;;;23.20;72.30;;;;;;5114527;28;20043;-58
2023/09/08 07:38:04;;;;;;;5.85;4.00;;;23.30;72.40;;;;;;5115160;28;20058;-58
2023/09/08 07:40:34;;;;;;;5.55;3.88;;;23.30;72.40;;;;;;5114042;28;20044;-58
2023/09/08 07:43:00;;;;;;;5.38;3.97;;;23.20;72.30;;;;;;5114332;28;20086;-58
2023/09/08 07:45:25;;;;;;;4.45;3.67;;;23.30;72.40;;;;;;5115311;28;20071;-58
2023/09/08 07:47:51;;;;;;;5.68;4.35;;;23.30;72.40;;;;;;5113557;28;20050;-58
2023/09/08 07:50:24;;;;;;;4.93;4.22;;;23.30;72.30;;;;;;5114939;28;20110;-58
2023/09/08 07:52:50;;;;;;;6.38;4.20;;;23.30;72.30;;;;;;5114821;28;20048;-59
2023/09/08 07:55:15;;;;;;;6.00;4.13;;;23.30;72.30;;;;;;5113385;28;20091;-58
2023/09/08 07:57:42;;;;;;;6.45;4.50;;;23.30;72.30;;;;;;5114393;28;20071;-58
2023/09/08 08:00:10;;;;;;;4.63;3.72;;;23.30;72.30;;;;;;5114956;28;20474;-58
2023/09/08 08:02:36;;;;;;;6.50;4.63;;;23.30;72.30;;;;;;5114115;28;20050;-59
2023/09/08 08:05:02;;;;;;;5.40;4.00;;;23.30;72.30;;;;;;5115180;28;20036;-58
2023/09/08 08:07:29;;;;;;;5.63;4.20;;;23.30;72.30;;;;;;5115061;28;20048;-58
2023/09/08 08:09:55;;;;;;;4.97;3.73;;;23.30;72.20;;;;;;5113930;28;20131;-58
2023/09/08 08:12:20;;;;;;;5.63;3.90;;;23.30;72.30;;;;;;5114781;28;20396;-58
2023/09/08 08:14:46;;;;;;;5.93;4.18;;;23.30;72.20;;;;;;5114290;28;20032;-58
2023/09/08 08:17:12;;;;;;;5.35;4.03;;;23.40;72.30;;;;;;5113851;28;20513;-58
2023/09/08 08:19:38;;;;;;;5.22;3.60;;;23.40;72.30;;;;;;5114263;28;20479;-58
2023/09/08 08:22:03;;;;;;;5.90;4.40;;;23.40;72.30;;;;;;5114777;28;20126;-58
2023/09/08 08:24:29;;;;;;;5.22;4.10;;;23.40;72.20;;;;;;5114054;28;20130;-58
2023/09/08 08:26:54;;;;;;;5.22;4.28;;;23.40;72.30;;;;;;5113909;28;20051;-58
2023/09/08 08:29:20;;;;;;;5.00;4.20;;;23.40;72.20;;;;;;5114431;28;20038;-58
2023/09/08 08:31:46;;;;;;;5.97;4.07;;;23.40;72.30;;;;;;5113656;28;20082;-58
2023/09/08 08:34:14;;;;;;;5.32;3.90;;;23.40;72.20;;;;;;5114604;28;20159;-58
2023/09/08 08:36:40;;;;;;;4.85;3.70;;;23.40;72.30;;;;;;5112653;28;20052;-58
2023/09/08 08:39:05;;;;;;;4.57;3.75;;;23.40;72.20;;;;;;5112184;28;20493;-58
2023/09/08 08:41:31;;;;;;;5.13;3.70;;;23.40;72.30;;;;;;5114349;28;20044;-58
2023/09/08 08:43:57;;;;;;;5.20;3.65;;;23.40;72.20;;;;;;5113357;28;20926;-58
2023/09/08 08:46:23;;;;;;;5.93;3.80;;;23.40;72.20;;;;;;5112585;28;20039;-59
2023/09/08 08:48:48;;;;;;;5.40;4.32;;;23.50;72.30;;;;;;5112762;28;20050;-58
2023/09/08 08:51:16;;;;;;;5.75;4.05;;;23.50;72.30;;;;;;5112136;28;20070;-58
2023/09/08 08:53:42;;;;;;;5.47;4.20;;;23.40;72.30;;;;;;5112476;28;20051;-58
2023/09/08 08:56:09;;;;;;;5.63;3.53;;;23.50;72.30;;;;;;5114071;28;20048;-58
2023/09/08 08:58:36;;;;;;;5.13;3.80;;;23.50;72.30;;;;;;5111638;28;20043;-58
2023/09/08 09:01:02;;;;;;;5.45;4.10;;;23.50;72.40;;;;;;5111944;28;20065;-58
2023/09/08 09:03:28;;;;;;;4.65;3.58;;;23.50;72.30;;;;;;5112634;28;20048;-58
2023/09/08 09:05:53;;;;;;;4.85;3.70;;;23.50;72.30;;;;;;5111519;28;20047;-58
2023/09/08 09:08:19;;;;;;;4.88;4.13;;;23.50;72.30;;;;;;5113501;28;20126;-58
2023/09/08 09:10:44;;;;;;;4.60;3.55;;;23.50;72.40;;;;;;5112143;28;20544;-58
2023/09/08 09:13:10;;;;;;;4.15;3.45;;;23.50;72.30;;;;;;5112652;28;20479;-58
2023/09/08 09:15:36;;;;;;;4.53;3.40;;;23.50;72.30;;;;;;5113523;28;20039;-58
2023/09/08 09:18:07;;;;;;;4.60;3.72;;;23.50;72.30;;;;;;5113737;28;20043;-58
2023/09/08 09:20:33;;;;;;;5.15;3.90;;;23.50;72.40;;;;;;5111678;28;20394;-58
2023/09/08 09:22:59;;;;;;;6.18;3.88;;;23.50;72.40;;;;;;5113290;28;20043;-59
2023/09/08 09:25:29;;;;;;;4.85;3.90;;;23.50;72.30;;;;;;5113552;28;20505;-58
2023/09/08 09:27:56;;;;;;;5.25;4.20;;;23.50;72.30;;;;;;5112142;28;20047;-58
2023/09/08 09:30:25;;;;;;;5.10;3.63;;;23.50;72.30;;;;;;5113493;28;20084;-58
2023/09/08 09:33:03;;;;;;;5.13;3.80;;;23.50;72.30;;;;;;5113248;28;20043;-58
2023/09/08 09:35:49;;;;;;;4.35;3.30;;;23.60;72.40;;;;;;5111145;28;20051;-58
2023/09/08 09:38:15;;;;;;;4.70;3.53;;;23.60;72.40;;;;;;5113019;28;20052;-58
2023/09/08 09:40:40;;;;;;;3.97;3.50;;;23.60;72.40;;;;;;5112305;28;20036;-58
2023/09/08 09:43:07;;;;;;;4.35;3.40;;;23.60;72.40;;;;;;5112933;28;20154;-58
2023/09/08 09:45:33;;;;;;;5.70;3.80;;;23.60;72.30;;;;;;5111777;28;20035;-58
2023/09/08 09:47:59;;;;;;;5.63;3.65;;;23.60;72.30;;;;;;5112348;28;20043;-58
2023/09/08 09:50:36;;;;;;;5.60;3.70;;;23.60;72.40;;;;;;5112074;28;20039;-58
2023/09/08 09:53:07;;;;;;;6.13;3.92;;;23.60;72.30;;;;;;5113094;28;20144;-58
2023/09/08 09:55:33;;;;;;;6.30;3.97;;;23.60;72.40;;;;;;5112405;28;20039;-58
2023/09/08 09:58:03;;;;;;;5.30;3.92;;;23.60;72.30;;;;;;5111626;28;20047;-58
2023/09/08 10:00:29;;;;;;;5.13;4.10;;;23.60;72.30;;;;;;5111948;28;20122;-58
2023/09/08 10:02:58;;;;;;;5.30;3.72;;;23.60;72.30;;;;;;5110899;28;20115;-58
2023/09/08 10:05:24;;;;;;;5.15;3.78;;;23.60;72.30;;;;;;5111948;28;20048;-58
2023/09/08 10:07:50;;;;;;;5.38;4.00;;;23.60;72.30;;;;;;5112616;28;20043;-58
2023/09/08 10:10:16;;;;;;;4.20;3.45;;;23.60;72.30;;;;;;5112075;28;20089;-58
2023/09/08 10:12:45;;;;;;;5.38;3.78;;;23.60;72.30;;;;;;5115410;28;20055;-58
2023/09/08 10:15:11;;;;;;;4.57;3.35;;;23.60;72.40;;;;;;5116643;28;20036;-58
2023/09/08 10:17:37;;;;;;;4.80;3.70;;;23.70;72.30;;;;;;5114864;28;20130;-58
2023/09/08 10:20:10;;;;;;;5.03;4.10;;;23.60;72.20;;;;;;5115612;28;20119;-58
2023/09/08 10:22:38;;;;;;;4.85;3.25;;;23.70;72.30;;;;;;5116047;28;20127;-58
2023/09/08 10:25:05;;;;;;;5.37;3.57;;;23.60;72.20;;;;;;5116760;28;20437;-58
2023/09/08 10:27:32;;;;;;;4.72;3.65;;;23.70;72.30;;;;;;5116456;28;20422;-58
2023/09/08 10:29:59;;;;;;;4.40;3.60;;;23.70;72.30;;;;;;5115676;28;20119;-58
2023/09/08 10:32:25;;;;;;;5.93;3.60;;;23.70;72.30;;;;;;5115545;28;20050;-58
2023/09/08 10:34:51;;;;;;;4.97;3.58;;;23.70;72.30;;;;;;5112338;28;20067;-57
2023/09/08 10:37:21;;;;;;;4.35;3.58;;;23.70;72.30;;;;;;5110896;28;20083;-58
2023/09/08 10:39:50;;;;;;;4.45;3.58;;;23.70;72.20;;;;;;5105720;28;20075;-57
2023/09/08 10:42:19;;;;;;;5.20;3.80;;;23.70;72.20;;;;;;5096596;28;20063;-57
2023/09/08 10:44:47;;;;;;;4.40;3.50;;;23.70;72.20;;;;;;5115419;28;20077;-58
2023/09/08 10:47:13;;;;;;;4.97;3.83;;;23.70;72.20;;;;;;5116382;28;20478;-58
2023/09/08 10:49:38;;;;;;;5.63;3.90;;;23.70;72.20;;;;;;5116320;28;20035;-58
2023/09/08 10:52:14;;;;;;;4.80;3.47;;;23.70;72.20;;;;;;5115655;28;20039;-58
2023/09/08 10:54:53;;;;;;;5.72;3.67;;;23.70;72.10;;;;;;5116032;28;20073;-58
2023/09/08 10:57:23;;;;;;;4.75;3.58;;;23.70;72.20;;;;;;5116586;28;20036;-58
2023/09/08 10:59:55;;;;;;;4.95;3.63;;;23.70;72.20;;;;;;5115110;28;20194;-58
2023/09/08 11:02:37;;;;;;;6.35;3.70;;;23.70;72.20;;;;;;5115105;28;20509;-59
2023/09/08 11:05:04;;;;;;;4.85;3.80;;;23.70;72.10;;;;;;5115291;28;20046;-58
2023/09/08 11:07:32;;;;;;;5.17;3.63;;;23.70;72.10;;;;;;5114912;28;20054;-58
2023/09/08 11:09:57;;;;;;;6.07;3.80;;;23.70;72.10;;;;;;5115526;28;20048;-58
2023/09/08 11:12:26;;;;;;;4.15;3.13;;;23.70;72.10;;;;;;5115317;28;20152;-58
2023/09/08 11:14:52;;;;;;;5.15;3.45;;;23.70;72.80;;;;;;5104409;28;20044;-58
2023/09/08 11:17:17;;;;;;;5.32;4.10;;;23.70;72.10;;;;;;5095375;28;20047;-58
2023/09/08 11:19:47;;;;;;;4.45;3.50;;;23.70;72.10;;;;;;5094457;28;20073;-58
2023/09/08 11:22:13;;;;;;;5.68;3.50;;;23.70;72.10;;;;;;5095510;28;20098;-58
2023/09/08 11:24:41;;;;;;;4.32;3.80;;;23.70;72.10;;;;;;5094246;28;20194;-58
2023/09/08 11:27:07;;;;;;;5.90;3.60;;;23.70;72.70;;;;;;5093946;28;20099;-58
2023/09/08 11:29:32;;;;;;;4.43;3.35;;;23.70;72.10;;;;;;5095116;28;20078;-58
2023/09/08 11:31:58;;;;;;;4.90;3.60;;;23.70;72.10;;;;;;5093925;28;20387;-58
2023/09/08 11:34:24;;;;;;;5.18;3.83;;;23.70;72.10;;;;;;5094380;28;20036;-58
2023/09/08 11:36:49;;;;;;;6.53;3.88;;;23.80;72.10;;;;;;5094720;28;20063;-58
2023/09/08 11:39:18;;;;;;;4.65;3.25;;;23.80;72.10;;;;;;5094976;28;20048;-58
2023/09/08 11:41:43;;;;;;;4.70;3.63;;;23.80;72.10;;;;;;5092823;28;20036;-58
2023/09/08 11:44:09;;;;;;;5.10;3.10;;;23.80;72.10;;;;;;5076762;28;20518;-58
2023/09/08 11:46:35;;;;;;;4.32;3.33;;;23.80;72.10;;;;;;5093550;28;20395;-58
2023/09/08 11:49:00;;;;;;;4.63;3.40;;;23.80;72.10;;;;;;5093870;28;20039;-58
2023/09/08 11:51:27;;;;;;;6.32;3.47;;;23.80;72.10;;;;;;5094854;28;20040;-58
2023/09/08 11:53:52;;;;;;;4.32;3.30;;;23.80;72.00;;;;;;5092652;28;20044;-58
2023/09/08 11:56:18;;;;;;;4.95;3.53;;;23.80;72.10;;;;;;5093390;28;20040;-58
2023/09/08 11:58:43;;;;;;;4.30;3.42;;;23.80;72.10;;;;;;5092821;28;20395;-58
2023/09/08 12:01:09;;;;;;;4.80;3.55;;;23.80;72.10;;;;;;5075849;28;20040;-58
2023/09/08 12:03:35;;;;;;;4.72;3.63;;;23.80;72.00;;;;;;5093115;28;20040;-58
2023/09/08 12:06:02;;;;;;;5.00;3.35;;;23.80;72.00;;;;;;5093256;28;20051;-58
2023/09/08 12:08:27;;;;;;;5.47;3.80;;;23.80;72.00;;;;;;5093737;28;20483;-58
2023/09/08 12:10:53;;;;;;;4.90;4.00;;;23.80;72.00;;;;;;5092862;28;20130;-58
2023/09/08 12:13:22;;;;;;;4.90;3.42;;;23.90;72.00;;;;;;5094335;28;20086;-58
2023/09/08 12:15:48;;;;;;;4.65;3.40;;;23.90;72.00;;;;;;5093010;28;20036;-58
2023/09/08 12:18:17;;;;;;;4.65;3.22;;;23.90;72.00;;;;;;5094003;28;20040;-58
2023/09/08 12:20:42;;;;;;;4.90;3.40;;;23.90;72.00;;;;;;5094064;28;20040;-58
2023/09/08 12:23:18;;;;;;;4.72;3.53;;;23.90;71.90;;;;;;5093406;28;20036;-58
2023/09/08 12:25:50;;;;;;;4.28;3.35;;;23.90;72.00;;;;;;5092649;28;20052;-57
2023/09/08 12:28:17;;;;;;;5.03;3.45;;;23.90;72.00;;;;;;5094037;28;20093;-58
2023/09/08 12:30:43;;;;;;;4.78;3.50;;;23.90;71.90;;;;;;5091858;28;20124;-58
2023/09/08 12:33:09;;;;;;;4.55;3.47;;;23.90;71.90;;;;;;5092931;28;20087;-58
2023/09/08 12:35:35;;;;;;;4.70;3.40;;;23.90;71.90;;;;;;5093611;28;20130;-58
2023/09/08 12:38:05;;;;;;;4.43;3.30;;;23.90;71.90;;;;;;5092905;28;20119;-58
2023/09/08 12:40:34;;;;;;;5.25;3.42;;;23.90;71.80;;;;;;5093894;28;20040;-58
2023/09/08 12:43:02;;;;;;;4.82;3.42;;;24.00;71.80;;;;;;5092022;28;20055;-58